Time;durP1;ratioP1;P1;durP2;ratioP2;P2;SDS_P1;SDS_P2;PMS_P1;PMS_P2;Temp;Humidity;BMP_temperature;BMP_pressure;BME280_temperature;BME280_humidity;BME280_pressure;Samples;Min_cycle;Max_cycle;Signal;HPM_P1;HPM_P2
2022/08/12 00:45:09;;;;;;;;;4.25;4.25;;;;;23.51;55.29;102067.00;5010282;28;9689;-67
2022/08/12 00:47:37;;;;;;;;;4.00;3.25;;;;;23.45;55.01;102064.16;5009239;28;8894;-67
2022/08/12 00:50:05;;;;;;;;;4.00;4.00;;;;;23.41;55.12;102064.91;5016994;28;8959;-68
2022/08/12 00:52:33;;;;;;;;;5.00;5.00;;;;;23.33;54.71;102065.34;5010543;28;8920;-67
2022/08/12 00:55:03;;;;;;;;;3.00;3.00;;;;;23.31;54.91;102062.00;5010373;28;9562;-67
2022/08/12 00:57:35;;;;;;;;;4.25;4.25;;;;;23.22;54.78;102064.34;5004909;28;8851;-67
2022/08/12 01:00:15;;;;;;;;;5.00;5.00;;;;;23.10;54.82;102060.84;4995447;28;8843;-67
2022/08/12 01:02:48;;;;;;;;;4.25;4.25;;;;;23.02;55.17;102061.25;4990128;28;8842;-67
2022/08/12 01:13:37;;;;;;;;;6.50;6.50;;;;;22.90;55.88;102066.78;4998258;28;8905;-67
2022/08/12 01:16:07;;;;;;;;;8.75;5.75;;;;;22.89;55.82;102062.38;5008752;28;8829;-68
2022/08/12 01:18:37;;;;;;;;;6.00;5.00;;;;;22.92;55.70;102065.47;5009832;28;8841;-67
2022/08/12 01:21:22;;;;;;;;;5.25;5.25;;;;;22.98;55.51;102071.91;5009845;28;8805;-67
2022/08/12 01:24:16;;;;;;;;;6.00;6.00;;;;;22.95;55.55;102073.22;4990532;28;8831;-68
2022/08/12 01:26:58;;;;;;;;;5.50;5.50;;;;;22.92;55.98;102070.13;4990174;28;8851;-68
2022/08/12 01:29:29;;;;;;;;;4.75;4.75;;;;;22.93;55.87;102072.66;4994732;28;8840;-68
2022/08/12 01:32:04;;;;;;;;;4.00;4.00;;;;;22.92;55.98;102070.13;5009773;28;8833;-68
2022/08/12 01:34:35;;;;;;;;;4.25;4.00;;;;;22.93;55.88;102071.81;5009819;28;8938;-67
2022/08/12 01:37:06;;;;;;;;;4.00;4.00;;;;;22.88;55.88;102064.25;5009926;28;9661;-66
2022/08/12 01:39:38;;;;;;;;;8.25;4.75;;;;;22.86;56.03;102066.44;5009899;28;8855;-67
2022/08/12 01:42:30;;;;;;;;;5.00;5.00;;;;;22.86;55.92;102060.94;5010278;28;8829;-66
2022/08/12 01:44:57;;;;;;;;;6.75;6.50;;;;;22.83;56.19;102063.34;5009295;28;8907;-67
2022/08/12 01:47:29;;;;;;;;;6.25;5.00;;;;;22.87;56.11;102059.84;5008771;28;8821;-67
2022/08/12 01:50:20;;;;;;;;;5.00;4.00;;;;;22.83;56.34;102058.69;4998371;28;8848;-66
2022/08/12 01:52:52;;;;;;;;;4.00;4.00;;;;;22.85;56.71;102053.78;5009592;28;8832;-66
2022/08/12 01:55:22;;;;;;;;;5.00;5.00;;;;;22.88;57.04;102055.19;5007873;28;8820;-66
2022/08/12 01:58:17;;;;;;;;;5.75;5.75;;;;;22.93;57.06;102056.16;5008350;28;8829;-67
2022/08/12 02:00:57;;;;;;;;;5.00;5.00;;;;;22.91;57.20;102062.97;5012772;28;8848;-66
2022/08/12 02:13:29;;;;;;;;;7.50;7.50;;;;;22.42;59.09;102046.94;5013232;28;9586;-65
2022/08/12 02:16:45;;;;;;;;;7.75;7.75;;;;;22.45;59.07;102049.19;5013177;28;8963;-67
2022/08/12 02:19:40;;;;;;;;;5.00;5.00;;;;;22.48;59.30;102038.78;5012950;28;8926;-67
2022/08/12 02:22:28;;;;;;;;;4.25;4.25;;;;;22.46;59.01;102048.09;5011484;28;8852;-65
2022/08/12 02:25:21;;;;;;;;;7.75;4.75;;;;;22.50;58.57;102040.22;5008806;28;9621;-65
2022/08/12 02:27:51;;;;;;;;;5.00;5.00;;;;;22.53;58.24;102033.44;4993797;28;8835;-66
2022/08/12 02:30:20;;;;;;;;;7.00;7.00;;;;;22.54;58.38;102038.66;5012781;28;9593;-66
2022/08/12 02:32:49;;;;;;;;;5.75;5.75;;;;;22.65;58.37;102040.53;5012986;28;8821;-68
2022/08/12 02:35:19;;;;;;;;;4.25;4.25;;;;;22.73;58.37;102033.81;5012417;28;8848;-66
2022/08/12 02:37:48;;;;;;;;;6.25;4.50;;;;;22.69;59.51;102032.63;5013083;28;8914;-66
2022/08/12 02:40:16;;;;;;;;;4.00;4.00;;;;;22.70;59.31;102032.38;5012865;28;8863;-66
2022/08/12 02:43:04;;;;;;;;;5.00;3.75;;;;;22.74;59.51;102032.72;5010214;28;9543;-69
2022/08/12 02:45:54;;;;;;;;;5.50;5.50;;;;;22.75;59.65;102028.88;5011241;28;8840;-66
2022/08/12 02:48:29;;;;;;;;;6.25;4.50;;;;;22.74;59.47;102034.63;5012307;28;9527;-67
2022/08/12 02:51:00;;;;;;;;;5.50;4.00;;;;;22.77;59.51;102036.84;5012429;28;8943;-66
2022/08/12 02:53:27;;;;;;;;;5.00;5.00;;;;;22.73;59.71;102038.44;5012442;28;8860;-67
2022/08/12 02:55:55;;;;;;;;;4.00;4.00;;;;;22.69;60.15;102035.38;4996861;28;8831;-66
2022/08/12 02:58:22;;;;;;;;;4.00;4.00;;;;;22.68;59.95;102034.50;4992222;28;8823;-66
2022/08/12 03:01:00;;;;;;;;;5.00;5.00;;;;;22.69;60.01;102038.13;5010209;28;8840;-65
2022/08/12 03:03:33;;;;;;;;;5.50;4.50;;;;;22.63;59.92;102030.84;5011764;28;9577;-67
2022/08/12 03:06:22;;;;;;;;;5.50;5.50;;;;;22.59;59.81;102030.50;5010235;28;8832;-67
2022/08/12 03:08:56;;;;;;;;;8.00;6.50;;;;;22.57;59.90;102021.72;5011773;28;9604;-67
2022/08/12 03:11:39;;;;;;;;;3.75;3.75;;;;;22.56;59.73;102022.75;5011030;28;8819;-66
2022/08/12 03:14:13;;;;;;;;;4.75;4.75;;;;;22.55;60.06;102015.63;5011867;28;8823;-66
2022/08/12 03:16:40;;;;;;;;;4.50;4.50;;;;;22.53;59.99;102016.97;5011880;28;8844;-66
2022/08/12 03:19:07;;;;;;;;;5.00;4.00;;;;;22.48;59.99;102009.44;5010970;28;8833;-66
2022/08/12 03:21:36;;;;;;;;;7.75;6.00;;;;;22.45;60.22;102010.78;5011596;28;9277;-66
2022/08/12 03:24:26;;;;;;;;;5.50;5.50;;;;;22.41;60.54;102015.09;5012015;28;8816;-67
2022/08/12 03:26:55;;;;;;;;;5.00;5.00;;;;;22.37;60.38;102015.81;5011546;28;8847;-67
2022/08/12 03:29:29;;;;;;;;;5.00;5.00;;;;;22.24;60.66;102007.88;5011499;28;8875;-66
2022/08/12 03:31:59;;;;;;;;;6.25;5.00;;;;;22.18;61.15;102006.94;5004220;28;8825;-67
2022/08/12 03:34:29;;;;;;;;;5.25;4.00;;;;;22.15;61.53;101999.19;5011331;28;8825;-66
2022/08/12 03:36:57;;;;;;;;;6.50;4.75;;;;;22.16;61.19;102006.34;5011020;28;8911;-66
2022/08/12 03:42:32;;;;;;;;;5.00;5.00;;;;;22.08;61.55;101998.47;5011503;28;8835;-66
2022/08/12 04:02:13;;;;;;;;;5.00;5.00;;;;;22.00;61.11;101996.09;5011477;28;8861;-67
2022/08/12 04:04:43;;;;;;;;;5.50;5.50;;;;;21.94;61.08;101997.91;5011255;28;8832;-67
2022/08/12 04:07:11;;;;;;;;;7.25;7.00;;;;;21.89;61.39;101997.81;5010888;28;8825;-67
2022/08/12 04:09:39;;;;;;;;;4.50;4.25;;;;;21.87;61.37;101998.03;5010624;28;8871;-68
2022/08/12 04:14:55;;;;;;;;;4.75;4.75;;;;;21.88;61.69;101996.16;5010767;28;8853;-67
2022/08/12 04:17:23;;;;;;;;;7.75;6.25;;;;;21.91;61.04;101992.91;5010837;28;8979;-67
2022/08/12 04:19:50;;;;;;;;;4.25;4.25;;;;;21.96;61.07;101991.13;5010859;28;8828;-67
2022/08/12 04:22:17;;;;;;;;;6.75;6.75;;;;;21.95;60.80;101994.09;4991742;28;9630;-66
2022/08/12 04:24:45;;;;;;;;;5.00;5.00;;;;;21.87;60.68;101997.22;4998240;28;8824;-67
2022/08/12 04:27:16;;;;;;;;;5.50;5.50;;;;;21.78;60.95;101991.28;5010571;28;9590;-66
2022/08/12 04:29:43;;;;;;;;;4.25;4.25;;;;;21.77;61.09;101992.34;5010417;28;8875;-67
2022/08/12 04:32:30;;;;;;;;;7.25;7.25;;;;;21.71;61.12;101990.56;4993533;28;8938;-67
2022/08/12 04:34:57;;;;;;;;;5.50;5.50;;;;;21.69;60.95;101989.97;5000203;28;8975;-66
2022/08/12 04:37:24;;;;;;;;;5.25;5.25;;;;;21.65;61.31;101986.06;5010772;28;8907;-67
2022/08/12 04:39:52;;;;;;;;;9.75;6.75;;;;;21.63;61.47;101999.16;5009252;28;8868;-68
2022/08/12 04:42:20;;;;;;;;;8.75;7.25;;;;;21.68;61.58;102000.13;5010224;28;8854;-65
2022/08/12 04:44:47;;;;;;;;;6.00;6.00;;;;;21.74;61.11;101995.56;5010251;28;9527;-68
2022/08/12 04:47:15;;;;;;;;;4.75;4.75;;;;;21.78;60.84;101998.66;5007067;28;8842;-67
2022/08/12 04:49:44;;;;;;;;;5.00;5.00;;;;;21.82;60.70;101997.94;5010471;28;9526;-67
2022/08/12 04:52:10;;;;;;;;;4.25;4.25;;;;;21.82;60.73;101992.44;5009518;28;8974;-67
2022/08/12 04:54:37;;;;;;;;;5.00;3.25;;;;;21.81;60.74;101984.47;5010306;28;8817;-66
2022/08/12 04:57:04;;;;;;;;;6.50;6.50;;;;;21.77;60.60;101986.88;5009751;28;8829;-67
2022/08/12 04:59:31;;;;;;;;;5.25;4.75;;;;;21.73;60.76;101983.78;5033889;22;8907;-66
2022/08/12 05:02:15;;;;;;;;;5.50;5.50;;;;;21.75;60.69;101985.44;5023941;28;8847;-66
2022/08/12 05:04:54;;;;;;;;;4.50;4.50;;;;;21.77;60.70;101984.13;5010461;28;8833;-66
2022/08/12 05:07:22;;;;;;;;;5.00;5.00;;;;;21.75;60.90;101982.69;5003432;28;8908;-66
2022/08/12 05:09:49;;;;;;;;;5.25;5.25;;;;;21.77;61.06;101981.38;5021583;28;8832;-66
2022/08/12 05:12:50;;;;;;;;;6.50;5.25;;;;;21.85;61.02;101989.25;5010423;28;8844;-66
2022/08/12 05:15:16;;;;;;;;;6.00;4.00;;;;;21.80;60.86;101991.88;5015247;28;8834;-66
2022/08/12 05:17:54;;;;;;;;;6.75;6.75;;;;;21.80;60.97;101988.31;5017152;28;8886;-66
2022/08/12 05:20:22;;;;;;;;;4.25;4.25;;;;;21.80;60.62;101993.78;5009682;28;9523;-66
2022/08/12 05:22:49;;;;;;;;;3.00;3.00;;;;;21.83;60.39;101988.63;5010643;28;9523;-65
2022/08/12 05:25:23;;;;;;;;;6.50;6.50;;;;;21.82;60.33;101991.63;4997766;28;8823;-65
2022/08/12 05:27:49;;;;;;;;;3.25;3.25;;;;;21.85;60.17;101993.88;5003812;28;8825;-66
2022/08/12 05:30:24;;;;;;;;;9.00;7.50;;;;;21.86;59.65;101987.31;5009678;28;8833;-66
2022/08/12 05:32:50;;;;;;;;;6.00;6.00;;;;;21.78;60.23;101995.91;5010402;28;8856;-66
2022/08/12 05:35:19;;;;;;;;;4.75;4.75;;;;;21.76;59.98;101995.34;5000756;28;9531;-66
2022/08/12 05:38:54;;;;;;;;;3.75;3.75;;;;;21.75;60.05;101994.47;5015503;28;8822;-66
2022/08/12 05:40:35;;;;;;;;;7.75;6.00;;;;;21.77;59.74;101997.00;5018237;28;8833;-66
2022/08/12 05:43:01;;;;;;;;;6.50;6.50;;;;;21.79;59.56;101995.66;5013875;28;8841;-66
2022/08/12 05:45:28;;;;;;;;;5.75;5.75;;;;;21.73;59.48;101992.00;5000287;28;8854;-65
2022/08/12 05:47:54;;;;;;;;;3.00;3.00;;;;;21.69;59.59;102001.78;5013404;28;8860;-65
2022/08/12 05:50:21;;;;;;;;;4.25;4.00;;;;;21.72;59.62;102008.69;5023714;28;8870;-66
2022/08/12 05:52:47;;;;;;;;;5.75;5.25;;;;;21.76;59.70;102011.78;5019387;28;8833;-65
2022/08/12 05:55:14;;;;;;;;;3.00;3.00;;;;;21.79;59.42;102017.59;5013165;28;8867;-66
2022/08/12 05:57:40;;;;;;;;;5.25;3.00;;;;;21.86;59.30;102015.56;5013780;28;9682;-66
2022/08/12 06:00:07;;;;;;;;;5.50;5.50;;;;;21.84;58.98;102020.47;5011526;28;9642;-66
2022/08/12 06:02:36;;;;;;;;;5.50;4.75;;;;;21.82;58.85;102008.06;5007554;28;8807;-66
2022/08/12 06:05:06;;;;;;;;;6.50;6.50;;;;;21.78;59.17;102012.38;5003485;28;8894;-66
2022/08/12 06:07:39;;;;;;;;;6.50;6.50;;;;;21.71;58.98;102010.59;5010728;28;8831;-66
2022/08/12 06:10:25;;;;;;;;;4.00;4.00;;;;;21.76;59.15;102012.63;4996979;28;9664;-66
2022/08/12 06:13:01;;;;;;;;;7.50;7.50;;;;;21.78;58.85;102006.88;5002734;28;8825;-65
2022/08/12 06:15:29;;;;;;;;;7.50;7.00;;;;;21.86;58.72;102012.00;5005472;28;8927;-65
2022/08/12 06:18:06;;;;;;;;;7.00;5.75;;;;;21.92;58.56;102016.53;5013182;28;9594;-65
2022/08/12 06:20:42;;;;;;;;;8.00;7.50;;;;;22.00;58.13;102009.81;5013441;28;8835;-66
2022/08/12 06:23:09;;;;;;;;;8.00;6.75;;;;;21.98;57.98;102010.88;4993645;28;9689;-66
2022/08/12 06:25:36;;;;;;;;;8.25;8.25;;;;;22.03;57.86;102012.06;5005805;28;8844;-66
2022/08/12 06:28:13;;;;;;;;;9.50;7.25;;;;;22.03;57.54;102012.91;5012943;28;8894;-66
2022/08/12 06:30:39;;;;;;;;;5.75;5.75;;;;;22.00;57.67;102013.41;5006294;28;9596;-66
2022/08/12 06:33:07;;;;;;;;;8.00;8.00;;;;;22.00;57.85;102009.81;5006802;28;8844;-66
2022/08/12 06:35:48;;;;;;;;;4.50;4.50;;;;;22.05;58.08;102007.19;5012354;28;8856;-66
2022/08/12 06:38:18;;;;;;;;;6.00;6.00;;;;;22.12;57.83;102005.97;5012785;28;8813;-66
2022/08/12 06:43:32;;;;;;;;;5.75;5.75;;;;;22.23;57.61;102006.22;4994874;28;8863;-66
2022/08/12 06:46:23;;;;;;;;;5.00;5.00;;;;;22.29;57.40;102005.25;5004077;28;8865;-65
2022/08/12 06:48:55;;;;;;;;;7.25;6.25;;;;;22.35;57.29;102004.25;5012327;28;8820;-66
2022/08/12 06:51:23;;;;;;;;;5.00;3.75;;;;;22.39;57.44;102003.50;4997456;28;9623;-66
2022/08/12 06:53:49;;;;;;;;;6.50;5.00;;;;;22.33;57.05;102000.94;5010204;28;8836;-66
2022/08/12 06:56:16;;;;;;;;;7.50;7.50;;;;;22.31;56.83;101998.41;5002400;28;8895;-67
2022/08/12 06:58:43;;;;;;;;;7.50;6.00;;;;;22.31;57.09;101986.63;5010839;28;8849;-65
2022/08/12 07:01:09;;;;;;;;;8.00;7.75;;;;;22.37;57.03;102002.94;5011698;28;8894;-66
2022/08/12 07:03:37;;;;;;;;;7.75;6.25;;;;;22.39;57.02;101992.53;5012415;28;8836;-66
2022/08/12 07:06:09;;;;;;;;;4.75;4.75;;;;;22.42;57.07;101993.97;5008562;28;8852;-65
2022/08/12 07:08:36;;;;;;;;;5.75;5.75;;;;;22.44;57.10;101989.91;5008880;28;8950;-66
2022/08/12 07:11:06;;;;;;;;;8.50;7.75;;;;;22.44;56.67;101992.66;5011380;28;9551;-67
2022/08/12 07:13:42;;;;;;;;;7.50;7.50;;;;;22.33;56.51;101992.72;5010114;28;9667;-66
2022/08/12 07:19:14;;;;;;;;;8.75;7.75;;;;;22.24;57.25;101996.88;5011429;28;8915;-66
2022/08/12 07:21:42;;;;;;;;;4.00;4.00;;;;;22.27;57.24;101990.94;5009725;28;8848;-66
2022/08/12 07:24:28;;;;;;;;;7.75;7.75;;;;;22.32;57.00;101997.38;5004694;28;8831;-65
2022/08/12 07:26:55;;;;;;;;;7.00;6.00;;;;;22.36;56.94;101993.06;5002073;28;8999;-65
2022/08/12 07:29:21;;;;;;;;;9.50;9.50;;;;;22.41;56.98;101993.16;5007949;28;8868;-65
2022/08/12 07:31:48;;;;;;;;;7.00;6.25;;;;;22.41;56.03;101993.16;5001879;28;8860;-65
2022/08/12 07:34:15;;;;;;;;;11.50;10.50;;;;;22.41;56.33;102003.28;4994840;28;8833;-65
2022/08/12 07:36:42;;;;;;;;;8.25;7.75;;;;;22.35;56.33;101998.75;5000276;28;9508;-65
2022/08/12 07:39:09;;;;;;;;;7.00;7.00;;;;;22.37;56.58;102000.19;5010893;28;8949;-65
2022/08/12 07:41:36;;;;;;;;;6.50;6.50;;;;;22.45;56.49;101999.81;5011421;28;8832;-65
2022/08/12 07:44:05;;;;;;;;;9.75;9.75;;;;;22.51;55.90;102003.47;4992910;28;9589;-65
2022/08/12 07:46:39;;;;;;;;;10.50;9.00;;;;;22.51;55.96;102003.47;4998105;28;8943;-65
2022/08/12 07:49:08;;;;;;;;;6.00;6.00;;;;;22.55;56.09;102004.63;5006745;28;8919;-66
2022/08/12 07:51:35;;;;;;;;;8.25;8.25;;;;;22.58;55.89;102004.16;5000951;28;8832;-66
2022/08/12 07:54:07;;;;;;;;;7.00;7.00;;;;;22.62;55.82;102010.00;4991902;28;8811;-66
2022/08/12 07:56:40;;;;;;;;;6.50;5.50;;;;;22.74;55.83;102009.94;4991509;28;8847;-66
2022/08/12 07:59:07;;;;;;;;;10.50;8.00;;;;;22.77;55.52;102014.91;4992944;28;8835;-66
2022/08/12 08:01:36;;;;;;;;;8.50;8.25;;;;;22.76;55.34;102021.47;4998103;28;8869;-66
2022/08/12 08:06:49;;;;;;;;;7.75;7.25;;;;;22.75;55.28;102017.91;4994680;28;8831;-66
2022/08/12 08:09:19;;;;;;;;;5.25;5.25;;;;;22.81;55.06;102021.56;4995672;28;8855;-65
2022/08/12 08:14:32;;;;;;;;;6.50;6.50;;;;;22.92;54.59;102018.78;4995018;28;8823;-66
2022/08/12 08:17:02;;;;;;;;;7.75;7.00;;;;;22.98;54.41;102025.22;4997478;28;8871;-66
2022/08/12 08:19:30;;;;;;;;;8.25;8.25;;;;;23.00;54.35;102023.03;5008750;28;9773;-65
2022/08/12 08:21:57;;;;;;;;;9.25;9.00;;;;;23.01;54.06;102019.22;5013362;28;8840;-66
2022/08/12 08:24:26;;;;;;;;;8.75;8.75;;;;;23.04;54.33;102026.13;5011855;28;8837;-66
2022/08/12 08:26:57;;;;;;;;;9.75;9.75;;;;;23.10;54.15;102025.13;5011309;28;8828;-66
2022/08/12 08:29:25;;;;;;;;;8.25;8.25;;;;;23.12;53.76;102020.22;5024137;28;8833;-66
2022/08/12 08:31:53;;;;;;;;;8.25;8.25;;;;;23.18;53.56;102027.47;5009325;28;8833;-66
2022/08/12 08:34:20;;;;;;;;;7.50;7.50;;;;;23.23;53.48;102015.72;5010218;28;8836;-65
2022/08/12 08:37:07;;;;;;;;;7.00;6.25;;;;;23.27;53.31;102023.22;5001343;28;8845;-65
2022/08/12 08:39:40;;;;;;;;;7.75;7.75;;;;;23.32;53.07;102017.78;5010366;28;8813;-66
2022/08/12 08:44:56;;;;;;;;;8.75;6.75;;;;;23.41;52.27;102013.53;5018961;28;8813;-65
2022/08/12 08:47:24;;;;;;;;;5.75;5.75;;;;;23.41;52.73;102013.53;5011868;28;8829;-66
2022/08/12 08:49:50;;;;;;;;;11.50;10.75;;;;;23.44;52.20;102004.78;5014028;28;8837;-65
2022/08/12 08:52:22;;;;;;;;;10.00;9.25;;;;;23.48;52.12;102001.53;5003551;28;8903;-66
2022/08/12 08:55:10;;;;;;;;;14.50;13.00;;;;;23.51;51.48;102009.28;5003181;28;9543;-66
2022/08/12 08:57:39;;;;;;;;;9.75;9.75;;;;;23.55;51.76;102010.44;5011762;28;8881;-65
2022/08/12 09:00:14;;;;;;;;;9.50;8.00;;;;;23.63;51.68;102021.84;5024940;28;8944;-66
2022/08/12 09:02:41;;;;;;;;;9.75;9.50;;;;;23.70;51.16;102010.69;5010035;28;8959;-65
2022/08/12 09:05:25;;;;;;;;;8.00;8.00;;;;;23.71;51.14;102011.53;5009829;28;8833;-65
2022/08/12 09:07:54;;;;;;;;;5.00;5.00;;;;;23.77;51.30;102018.75;5015891;28;8891;-66
2022/08/12 09:10:40;;;;;;;;;9.50;9.25;;;;;23.88;51.50;102015.88;5008113;28;8951;-66
2022/08/12 09:13:27;;;;;;;;;8.25;6.50;;;;;23.95;51.17;102014.88;5015897;28;8822;-66
2022/08/12 09:16:15;;;;;;;;;9.25;9.25;;;;;23.99;51.34;102018.78;5009687;28;8852;-66
2022/08/12 09:18:46;;;;;;;;;6.25;5.00;;;;;24.02;51.23;102016.31;5020617;28;8822;-66
2022/08/12 09:21:12;;;;;;;;;10.50;10.50;;;;;24.08;51.24;102018.06;5020996;28;8952;-66
2022/08/12 09:23:40;;;;;;;;;12.00;12.00;;;;;24.14;51.19;102016.19;4990983;28;8831;-66
2022/08/12 09:26:27;;;;;;;;;8.75;8.00;;;;;24.16;51.43;102020.38;5003455;28;8895;-66
2022/08/12 09:28:56;;;;;;;;;12.25;11.50;;;;;24.18;51.48;102015.44;5014450;28;8837;-66
2022/08/12 09:31:23;;;;;;;;;11.25;11.25;;;;;24.22;51.65;102020.41;5009156;28;8859;-66
2022/08/12 09:34:10;;;;;;;;;8.50;8.50;;;;;24.28;51.39;102019.41;5003642;28;8870;-66
2022/08/12 09:36:56;;;;;;;;;7.50;7.50;;;;;24.29;51.34;102016.38;5014070;28;8840;-66
2022/08/12 09:39:29;;;;;;;;;7.75;7.75;;;;;24.33;51.92;102023.03;5010019;28;8825;-66
2022/08/12 09:45:21;;;;;;;;;7.75;6.75;;;;;24.44;51.70;102010.25;5017182;28;8848;-66
2022/08/12 09:48:08;;;;;;;;;14.75;12.75;;;;;24.54;51.07;102012.28;5013201;28;8959;-66
2022/08/12 09:50:35;;;;;;;;;12.50;11.50;;;;;24.57;50.50;102009.84;5013936;28;8916;-66
2022/08/12 09:53:04;;;;;;;;;10.75;10.25;;;;;24.63;50.64;102008.81;5029334;28;8819;-66
2022/08/12 09:55:31;;;;;;;;;9.00;9.00;;;;;24.70;50.35;102005.84;5029448;28;8821;-67
2022/08/12 09:58:25;;;;;;;;;9.75;9.75;;;;;24.73;50.18;102005.31;5022801;28;8821;-65
2022/08/12 10:01:12;;;;;;;;;10.75;10.75;;;;;24.80;49.82;101999.59;5007037;28;9857;-65
2022/08/12 10:03:48;;;;;;;;;11.75;10.25;;;;;24.88;49.77;101996.38;5001322;28;8835;-65
2022/08/12 10:06:30;;;;;;;;;8.00;7.50;;;;;24.92;49.80;101995.59;4990571;28;8823;-66
2022/08/12 10:09:07;;;;;;;;;10.25;10.00;;;;;24.92;49.90;101992.00;5001687;28;8843;-66
2022/08/12 10:14:38;;;;;;;;;13.25;12.75;;;;;25.07;49.50;101989.34;5004499;28;8829;-66
2022/08/12 10:17:16;;;;;;;;;10.25;10.25;;;;;25.13;49.70;101985.59;5010295;28;8914;-66
2022/08/12 10:19:42;;;;;;;;;12.25;11.50;;;;;25.17;49.78;101982.31;5010008;28;8981;-66
2022/08/12 10:22:19;;;;;;;;;12.25;11.00;;;;;25.11;50.32;101979.50;5022720;28;8826;-66
2022/08/12 10:30:56;;;;;;;;;10.75;10.75;;;;;25.31;49.96;101972.47;5013174;28;8860;-65
2022/08/12 10:33:29;;;;;;;;;16.25;15.50;;;;;25.33;50.01;101976.63;4998913;28;8842;-65
2022/08/12 10:35:58;;;;;;;;;15.25;13.00;;;;;25.34;50.17;101972.78;5018605;28;8852;-66
2022/08/12 10:38:25;;;;;;;;;13.00;12.00;;;;;25.38;50.22;101975.81;5017933;28;8958;-66
2022/08/12 10:44:12;;;;;;;;;10.75;10.75;;;;;25.40;49.91;101968.09;5019861;28;8939;-66
2022/08/12 10:46:44;;;;;;;;;12.75;12.50;;;;;25.47;50.18;101963.19;5018239;28;8865;-66
2022/08/12 10:49:15;;;;;;;;;11.50;11.50;;;;;25.49;50.42;101962.94;5028832;28;8903;-61
2022/08/12 10:52:04;;;;;;;;;10.50;9.25;;;;;25.59;50.95;101969.31;5012353;28;8927;-65
2022/08/12 10:54:53;;;;;;;;;11.25;10.75;;;;;25.69;50.77;101952.03;4999121;28;8863;-66
2022/08/12 10:57:22;;;;;;;;;11.25;11.25;;;;;25.73;50.70;101946.78;4992532;28;8839;-65
2022/08/12 11:00:09;;;;;;;;;14.50;13.75;;;;;25.74;50.27;101945.69;5003766;28;8863;-65
2022/08/12 11:02:56;;;;;;;;;13.25;13.00;;;;;25.77;50.36;101940.50;4992177;28;8969;-66
2022/08/12 11:05:43;;;;;;;;;13.50;13.50;;;;;25.82;50.14;101932.25;4992480;28;8866;-66
2022/08/12 11:08:30;;;;;;;;;11.50;11.50;;;;;25.90;49.66;101925.38;4992027;28;9535;-65
2022/08/12 11:11:08;;;;;;;;;14.00;14.00;;;;;25.93;48.44;101922.06;4990927;28;8969;-66
2022/08/12 11:13:40;;;;;;;;;11.00;11.00;;;;;25.93;49.50;101926.75;5010504;28;8963;-65
2022/08/12 11:16:16;;;;;;;;;11.25;10.25;;;;;25.96;49.36;101921.50;5010171;28;9593;-65
2022/08/12 11:18:48;;;;;;;;;15.00;13.25;;;;;26.00;49.80;101921.81;5009651;28;8881;-65
2022/08/12 11:21:21;;;;;;;;;14.50;14.25;;;;;26.05;48.64;101916.28;5011833;28;8832;-66
2022/08/12 11:24:07;;;;;;;;;10.00;9.25;;;;;26.08;49.22;101921.28;5011755;28;8873;-65
2022/08/12 11:26:55;;;;;;;;;11.75;11.00;;;;;26.15;49.14;101916.31;4999729;28;8898;-65
2022/08/12 11:29:25;;;;;;;;;8.00;7.00;;;;;26.28;49.04;101917.72;5005823;28;8841;-65
2022/08/12 11:31:52;;;;;;;;;14.00;14.00;;;;;26.30;47.59;101918.28;5010641;28;8828;-65
2022/08/12 11:34:28;;;;;;;;;16.75;15.50;;;;;26.29;48.25;101916.63;4997849;28;8910;-66
2022/08/12 11:37:14;;;;;;;;;11.75;11.00;;;;;26.24;48.60;101916.63;5005406;28;8959;-65
2022/08/12 11:39:53;;;;;;;;;11.00;11.00;;;;;26.32;49.43;101908.63;4991847;28;8812;-65
2022/08/12 11:42:35;;;;;;;;;10.75;10.50;;;;;26.45;48.23;101900.94;4993967;28;8886;-64
2022/08/12 11:45:05;;;;;;;;;14.50;12.50;;;;;26.49;48.53;101902.84;5007623;28;8906;-65
2022/08/12 11:47:36;;;;;;;;;9.50;9.50;;;;;26.58;47.31;101900.41;5009756;28;10231;-65
2022/08/12 11:50:07;;;;;;;;;11.25;9.50;;;;;26.69;46.30;101896.50;5004397;28;8836;-65
2022/08/12 11:52:37;;;;;;;;;10.25;10.00;;;;;26.80;44.99;101897.34;5007582;28;8965;-65
2022/08/12 11:55:23;;;;;;;;;10.50;10.50;;;;;26.85;45.20;101895.38;4991573;28;8859;-66
2022/08/12 11:57:54;;;;;;;;;12.75;12.50;;;;;26.92;43.33;101891.53;4991373;28;8871;-66
2022/08/12 12:00:41;;;;;;;;;12.75;12.50;;;;;27.02;45.31;101883.19;4991111;28;8827;-66
2022/08/12 12:03:27;;;;;;;;;11.50;10.25;;;;;27.07;46.34;101880.44;5000486;28;8850;-66
2022/08/12 12:06:13;;;;;;;;;7.50;7.50;;;;;27.15;46.90;101882.66;5009133;28;8841;-65
2022/08/12 12:08:43;;;;;;;;;10.25;10.25;;;;;27.19;45.28;101885.69;5013873;28;8865;-65
2022/08/12 12:11:17;;;;;;;;;10.00;10.00;;;;;27.29;44.98;101871.84;5004840;28;8845;-65
2022/08/12 12:13:44;;;;;;;;;11.75;9.75;;;;;27.40;44.31;101878.16;5009910;28;9571;-65
2022/08/12 12:16:30;;;;;;;;;9.75;9.75;;;;;27.45;42.07;101875.38;5008782;28;8882;-66
2022/08/12 12:18:59;;;;;;;;;10.75;9.25;;;;;27.50;41.54;101870.63;5008779;28;8844;-65
2022/08/12 12:21:25;;;;;;;;;8.50;8.50;;;;;27.55;43.02;101865.09;5006489;28;8850;-65
2022/08/12 12:24:12;;;;;;;;;8.75;8.00;;;;;27.63;42.80;101863.69;4991185;28;8835;-65
2022/08/12 12:26:47;;;;;;;;;9.75;9.75;;;;;27.72;42.46;101863.91;5001359;28;8824;-65
2022/08/12 12:29:29;;;;;;;;;11.00;11.00;;;;;27.73;42.15;101860.88;5009632;28;8840;-64
2022/08/12 12:32:16;;;;;;;;;10.50;10.50;;;;;27.77;42.06;101870.25;4994210;28;8838;-64
2022/08/12 12:34:44;;;;;;;;;9.75;8.75;;;;;27.84;41.47;101864.44;5008792;28;8841;-64
2022/08/12 12:37:30;;;;;;;;;8.75;8.75;;;;;27.92;39.76;101863.00;4990586;28;8953;-64
2022/08/12 12:40:17;;;;;;;;;7.25;7.25;;;;;27.92;38.91;101854.69;4990733;28;8823;-64
2022/08/12 12:42:44;;;;;;;;;16.25;15.25;;;;;27.95;37.83;101856.88;4997238;28;8836;-65
2022/08/12 12:45:28;;;;;;;;;8.50;7.75;;;;;28.00;36.51;101852.16;5008049;28;8914;-64
2022/08/12 12:48:16;;;;;;;;;11.25;11.25;;;;;28.12;37.80;101842.66;5010141;28;8852;-64
2022/08/12 12:51:14;;;;;;;;;7.75;7.75;;;;;28.18;37.84;101844.25;5008357;28;8924;-64
2022/08/12 12:53:40;;;;;;;;;9.50;9.50;;;;;28.24;37.83;101845.88;5010081;28;8967;-64
2022/08/12 12:56:26;;;;;;;;;8.25;8.25;;;;;28.32;37.39;101846.09;5009164;28;8833;-65
2022/08/12 12:59:02;;;;;;;;;10.00;10.00;;;;;28.38;35.69;101849.66;5009730;28;8837;-65
2022/08/12 13:01:28;;;;;;;;;8.00;8.00;;;;;28.35;35.75;101841.91;5010465;28;8831;-64
2022/08/12 13:04:00;;;;;;;;;8.00;8.00;;;;;28.33;35.19;101841.38;4998467;28;8902;-65
2022/08/12 13:06:30;;;;;;;;;9.75;9.75;;;;;28.37;35.22;101830.59;5009130;28;8837;-65
2022/08/12 13:09:00;;;;;;;;;10.25;9.25;;;;;28.55;35.37;101833.44;5009008;28;8848;-64
2022/08/12 13:11:32;;;;;;;;;9.00;9.00;;;;;28.56;35.89;101828.72;5010088;28;8828;-65
2022/08/12 13:14:12;;;;;;;;;9.50;9.50;;;;;28.55;35.18;101825.13;5009725;28;8837;-65
2022/08/12 13:17:02;;;;;;;;;8.75;8.00;;;;;28.62;35.91;101827.56;4999831;28;8845;-64
2022/08/12 13:19:34;;;;;;;;;9.00;9.00;;;;;28.61;35.51;101825.91;4998001;28;8858;-64
2022/08/12 13:22:16;;;;;;;;;8.75;8.75;;;;;28.62;35.93;101827.56;5005320;28;8863;-64
2022/08/12 13:24:46;;;;;;;;;8.00;8.00;;;;;28.69;36.26;101830.81;4991117;28;8953;-65
2022/08/12 13:27:20;;;;;;;;;7.50;7.50;;;;;28.75;36.80;101818.56;5006594;28;8858;-64
2022/08/12 13:29:47;;;;;;;;;7.25;6.50;;;;;28.82;36.75;101818.22;4990887;28;8846;-64
2022/08/12 13:32:14;;;;;;;;;9.00;9.00;;;;;28.91;36.77;101818.41;4991386;28;8835;-65
2022/08/12 13:34:56;;;;;;;;;10.25;10.25;;;;;28.98;36.78;101824.44;5014750;28;8973;-65
2022/08/12 13:37:43;;;;;;;;;7.00;7.00;;;;;29.01;36.60;101816.38;5002227;28;8871;-65
2022/08/12 13:40:25;;;;;;;;;9.00;9.00;;;;;29.01;36.55;101810.84;5006582;28;8845;-65
2022/08/12 13:42:56;;;;;;;;;7.25;7.25;;;;;29.05;36.71;101813.84;5008424;28;8886;-65
2022/08/12 13:45:25;;;;;;;;;8.00;6.00;;;;;29.06;37.14;101810.75;4990356;28;8857;-66
2022/08/12 13:47:55;;;;;;;;;8.50;8.50;;;;;29.12;37.01;101803.19;5000048;28;8841;-65
2022/08/12 13:50:31;;;;;;;;;8.25;7.75;;;;;29.18;36.72;101807.56;5009683;28;8926;-64
2022/08/12 13:53:27;;;;;;;;;6.50;6.50;;;;;29.22;36.74;101805.03;5009608;28;8821;-65
2022/08/12 13:56:13;;;;;;;;;9.00;8.00;;;;;29.23;35.75;101809.44;5007547;28;8841;-65